Carnival Spirit — 9HA3097 — position and weather

sailwx.info

Track history (hours):
 
Tides and Currents Weather Stations Pressure Air Temp Water Temp Dewpoint Dewpoint Depression Visibility Wind Speed Wind Dir Waves Ship Positions

Carnival Spirit

Last reported at 2017-Mar-29 12:33 UTC. Time now 2017-Mar-30 14:45 UTC.
Position S 32°40' E 153°01'.

Length 293 m; draft 7.9 m.

Type: Ship. MMSI: 229136000.

Date/timePositionNaut miles runAvg speedWind from/ knotsBaromVisibWave heightAir tempDewpointWater temp
2017-Mar-29 12:33S 32°40' E 153°01'1717.3
2017-Mar-29 11:34S 32°51' E 152°45'1717.2
2017-Mar-29 10:34S 33°02' E 152°30'1717.1
2017-Mar-29 09:33S 33°13' E 152°14'1716.8
2017-Mar-29 08:34S 33°24' E 151°59'1918.3
2017-Mar-29 07:31S 33°37' E 151°42'36 2.1
2017-Mar-28 14:33S 33°11' E 152°12'2121.2
2017-Mar-28 13:33S 32°56' E 152°31'2120.7
2017-Mar-28 12:33S 32°42' E 152°48'  
2017-Mar-25 09:33S 22°23' E 166°38'1515.0
2017-Mar-25 08:33S 22°16' E 166°23'3 2.6
2017-Mar-25 07:33S 22°16' E 166°26'0 0.0
2017-Mar-25 06:33S 22°16' E 166°26'0 0.0
2017-Mar-25 05:33S 22°16' E 166°26'0 0.0
2017-Mar-25 04:33S 22°16' E 166°26'0 0.0
2017-Mar-25 03:30S 22°16' E 166°26'0 0.0
2017-Mar-25 02:33S 22°16' E 166°26'0 0.0
2017-Mar-25 01:33S 22°16' E 166°26'0 0.0
2017-Mar-25 00:33S 22°16' E 166°26'0 0.0
2017-Mar-24 23:33S 22°16' E 166°26'0 0.0
2017-Mar-24 22:33S 22°16' E 166°26'0 0.0
2017-Mar-24 21:33S 22°16' E 166°26'0 0.1
2017-Mar-24 20:33S 22°16' E 166°26'5 5.0
2017-Mar-24 19:33S 22°16' E 166°21'1312.5
2017-Mar-24 18:33S 22°25' E 166°11'8 8.1
2017-Mar-24 17:33S 22°31' E 166°05'8 7.9
2017-Mar-24 16:32S 22°39' E 166°05'54 2.5
2017-Mar-23 19:10S 22°32' E 167°03'1817.5
2017-Mar-23 18:09S 22°24' E 166°46'1118.4
2017-Mar-23 17:34S 22°27' E 166°35'1514.9
2017-Mar-23 16:33S 22°34' E 166°21'93019.3
2017-Mar-21 16:16S 32°39' E 153°03'1317.7
2017-Mar-21 15:33S 32°47' E 152°51'1717.4
2017-Mar-21 14:33S 32°59' E 152°36'1717.2
2017-Mar-21 13:33S 33°12' E 152°22'1918.6
2017-Mar-21 12:32S 33°22' E 152°03'1919.2
2017-Mar-21 11:33S 33°34' E 151°46'12 0.5
2017-Mar-20 10:33S 33°25' E 151°55'2120.7
2017-Mar-20 09:33S 33°10' E 152°12'2222.1
2017-Mar-20 08:33S 32°55' E 152°31'2323.5
2017-Mar-20 07:33S 32°38' E 152°51'  
Track history (hours):
 
Tides and Currents Weather Stations Pressure Air Temp Water Temp Dewpoint Dewpoint Depression Visibility Wind Speed Wind Dir Waves Ship Positions

Carnival Spirit

Last reported at 2017-Mar-29 12:33 UTC. Time now 2017-Mar-30 14:45 UTC.
Position S 32°40' E 153°01'.

Length 293 m; draft 7.9 m.

Type: Ship. MMSI: 229136000.

Date/timePositionNaut miles runAvg speedWind from/ knotsBaromVisibWave heightAir tempDewpointWater temp
2017-Mar-29 12:33S 32°40' E 153°01'1717.3
2017-Mar-29 11:34S 32°51' E 152°45'1717.2
2017-Mar-29 10:34S 33°02' E 152°30'1717.1
2017-Mar-29 09:33S 33°13' E 152°14'1716.8
2017-Mar-29 08:34S 33°24' E 151°59'1918.3
2017-Mar-29 07:31S 33°37' E 151°42'36 2.1
2017-Mar-28 14:33S 33°11' E 152°12'2121.2
2017-Mar-28 13:33S 32°56' E 152°31'2120.7
2017-Mar-28 12:33S 32°42' E 152°48'  
2017-Mar-25 09:33S 22°23' E 166°38'1515.0
2017-Mar-25 08:33S 22°16' E 166°23'3 2.6
2017-Mar-25 07:33S 22°16' E 166°26'0 0.0
2017-Mar-25 06:33S 22°16' E 166°26'0 0.0
2017-Mar-25 05:33S 22°16' E 166°26'0 0.0
2017-Mar-25 04:33S 22°16' E 166°26'0 0.0
2017-Mar-25 03:30S 22°16' E 166°26'0 0.0
2017-Mar-25 02:33S 22°16' E 166°26'0 0.0
2017-Mar-25 01:33S 22°16' E 166°26'0 0.0
2017-Mar-25 00:33S 22°16' E 166°26'0 0.0
2017-Mar-24 23:33S 22°16' E 166°26'0 0.0
2017-Mar-24 22:33S 22°16' E 166°26'0 0.0
2017-Mar-24 21:33S 22°16' E 166°26'0 0.1
2017-Mar-24 20:33S 22°16' E 166°26'5 5.0
2017-Mar-24 19:33S 22°16' E 166°21'1312.5
2017-Mar-24 18:33S 22°25' E 166°11'8 8.1
2017-Mar-24 17:33S 22°31' E 166°05'8 7.9
2017-Mar-24 16:32S 22°39' E 166°05'54 2.5
2017-Mar-23 19:10S 22°32' E 167°03'1817.5
2017-Mar-23 18:09S 22°24' E 166°46'1118.4
2017-Mar-23 17:34S 22°27' E 166°35'1514.9
2017-Mar-23 16:33S 22°34' E 166°21'93019.3
2017-Mar-21 16:16S 32°39' E 153°03'1317.7
2017-Mar-21 15:33S 32°47' E 152°51'1717.4
2017-Mar-21 14:33S 32°59' E 152°36'1717.2
2017-Mar-21 13:33S 33°12' E 152°22'1918.6
2017-Mar-21 12:32S 33°22' E 152°03'1919.2
2017-Mar-21 11:33S 33°34' E 151°46'12 0.5
2017-Mar-20 10:33S 33°25' E 151°55'2120.7
2017-Mar-20 09:33S 33°10' E 152°12'2222.1
2017-Mar-20 08:33S 32°55' E 152°31'2323.5
2017-Mar-20 07:33S 32°38' E 152°51'  

Dump ship's entire track history